The World — C6RW4 — position and weather

sailwx.info

Track history (hours):
 
Tides and Currents Weather Stations Pressure Air Temp Water Temp Dewpoint Dewpoint Depression Visibility Wind Speed Wind Dir Waves Ship Positions

The World

Operator: Bergshav-Norway

Last reported at 2018-Sep-22 07:02 UTC. Time now 2018-Sep-22 07:15 UTC.
Position N 51°51' W 008°18'.

Length 196 m; draft 7.1 m.

Type: Ship. MMSI: 311213000.

Date/timePositionNaut miles runAvg speedWind from/ knotsBaromVisibWave heightAir tempDewpointWater temp
2018-Sep-22 07:02N 51°51' W 008°18'0 0.0
2018-Sep-22 06:56N 51°51' W 008°18'0 0.0
2018-Sep-22 06:26N 51°51' W 008°18'0 0.0
2018-Sep-22 06:02N 51°51' W 008°18'0 0.0
2018-Sep-22 05:56N 51°51' W 008°18'0 0.0
2018-Sep-22 05:26N 51°51' W 008°18'0 0.0
2018-Sep-22 05:02N 51°51' W 008°18'0 0.0
2018-Sep-22 04:56N 51°51' W 008°18'0 0.0
2018-Sep-22 04:26N 51°51' W 008°18'0 0.0
2018-Sep-22 04:02N 51°51' W 008°18'0 0.0
2018-Sep-22 03:56N 51°51' W 008°18'0 0.0
2018-Sep-22 03:26N 51°51' W 008°18'0 0.0
2018-Sep-22 03:02N 51°51' W 008°18'0 0.0
2018-Sep-22 02:56N 51°51' W 008°18'0 0.0
2018-Sep-22 02:26N 51°51' W 008°18'0 0.0
2018-Sep-22 02:02N 51°51' W 008°18'0 0.0
2018-Sep-22 01:56N 51°51' W 008°18'0 0.0
2018-Sep-22 01:26N 51°51' W 008°18'0 0.0
2018-Sep-22 01:02N 51°51' W 008°18'0 0.0
2018-Sep-22 00:56N 51°51' W 008°18'0 0.0
2018-Sep-22 00:26N 51°51' W 008°18'0 0.0
2018-Sep-22 00:02N 51°51' W 008°18'0 0.0
2018-Sep-21 23:56N 51°51' W 008°18'0 0.0
2018-Sep-21 23:26N 51°51' W 008°18'0 0.0
2018-Sep-21 23:02N 51°51' W 008°18'0 0.0
2018-Sep-21 22:56N 51°51' W 008°18'0 0.0
2018-Sep-21 22:26N 51°51' W 008°18'0 0.0
2018-Sep-21 22:02N 51°51' W 008°18'0 0.0
2018-Sep-21 21:56N 51°51' W 008°18'0 0.0
2018-Sep-21 21:26N 51°51' W 008°18'0 0.0
2018-Sep-21 21:02N 51°51' W 008°18'0 0.0
2018-Sep-21 20:56N 51°51' W 008°18'0 0.0
2018-Sep-21 20:26N 51°51' W 008°18'0 0.0
2018-Sep-21 20:02N 51°51' W 008°18'0 0.0
2018-Sep-21 19:56N 51°51' W 008°18'0 0.0
2018-Sep-21 19:26N 51°51' W 008°18'0 0.0
2018-Sep-21 19:02N 51°51' W 008°18'0 0.0
2018-Sep-21 18:56N 51°51' W 008°18'0 0.0
2018-Sep-21 18:26N 51°51' W 008°18'0 0.3
2018-Sep-21 18:03N 51°51' W 008°18'0 0.4
2018-Sep-21 18:00N 51°51' W 008°18'2 3.1
2018-Sep-21 17:31N 51°50' W 008°16'510.4
2018-Sep-21 17:03N 51°46' W 008°15'010.0
2018-Sep-21 17:01N 51°45' W 008°15'4 7.1
2018-Sep-21 16:31N 51°43' W 008°11'512.0
2018-Sep-21 16:04N 51°45' W 008°02'111.7
2018-Sep-21 16:00N 51°45' W 008°01'611.5
2018-Sep-21 15:31N 51°47' W 007°53'511.4
2018-Sep-21 15:03N 51°48' W 007°44'111.4
2018-Sep-21 15:00N 51°48' W 007°44'1111.1
2018-Sep-21 14:00N 51°51' W 007°27'611.6
2018-Sep-21 13:31N 51°53' W 007°18'4 8.9
2018-Sep-21 13:01N 51°54' W 007°11'0 8.9
2018-Sep-21 13:00N 51°54' W 007°11'15 8.6
2018-Sep-21 11:17N 51°59' W 006°48'2 8.3
2018-Sep-21 11:01N 51°59' W 006°44'4 8.3
2018-Sep-21 10:31N 52°01' W 006°38'4 8.1
2018-Sep-21 10:04N 52°02' W 006°32'0 8.3
2018-Sep-21 10:00N 52°03' W 006°32'4 7.9
2018-Sep-21 09:31N 52°04' W 006°26'3 7.6
2018-Sep-21 09:03N 52°06' W 006°21'0 7.6
2018-Sep-21 09:00N 52°06' W 006°20'4 7.4
2018-Sep-21 08:30N 52°08' W 006°15'3 7.6
2018-Sep-21 08:04N 52°10' W 006°11'0 7.6
2018-Sep-21 08:01N 52°10' W 006°10'4 8.1
2018-Sep-21 07:31N 52°14' W 006°07'4 8.6
2018-Sep-21 07:03N 52°17' W 006°05'0 8.6
2018-Sep-21 07:00N 52°18' W 006°05'4 8.7
2018-Sep-21 06:31N 52°22' W 006°03'4 8.6
2018-Sep-21 06:04N 52°26' W 006°01'0 8.7
2018-Sep-21 06:00N 52°26' W 006°00'4 8.7
2018-Sep-21 05:31N 52°30' W 005°58'4 8.7
2018-Sep-21 05:03N 52°34' W 005°56'0 8.8
2018-Sep-21 05:00N 52°34' W 005°56'4 8.6
2018-Sep-21 04:30N 52°38' W 005°53'4 8.1
2018-Sep-21 04:03N 52°42' W 005°53'0 8.3
2018-Sep-21 04:00N 52°42' W 005°53'5 8.5
2018-Sep-21 03:28N 52°47' W 005°53'4 8.8
2018-Sep-21 03:04N 52°50' W 005°52'1 8.8
2018-Sep-21 03:00N 52°51' W 005°52'5 9.0
2018-Sep-21 02:30N 52°55' W 005°52'4 8.2
2018-Sep-21 02:03N 52°59' W 005°54'0 8.3
2018-Sep-21 02:01N 52°59' W 005°54'4 8.6
2018-Sep-21 01:30N 53°04' W 005°55'4 9.1
2018-Sep-21 01:04N 53°08' W 005°56'1 9.0
2018-Sep-21 01:00N 53°08' W 005°56'4 8.8
2018-Sep-21 00:30N 53°12' W 005°59'4 8.8
2018-Sep-21 00:04N 53°16' W 006°01'0 9.3
2018-Sep-21 00:01N 53°16' W 006°01'7 9.1
2018-Sep-20 23:16N 53°21' W 006°10'2 0.3
2018-Sep-20 16:33N 53°21' W 006°13'0 0.0
2018-Sep-20 09:51N 53°21' W 006°13'0 0.0
2018-Sep-20 09:30N 53°21' W 006°13'  
2018-Sep-17 06:43N 53°21' W 006°13'1 3.9
2018-Sep-17 06:30N 53°21' W 006°11'6 8.8
2018-Sep-17 05:50N 53°21' W 006°01'413.0
2018-Sep-17 05:31N 53°24' W 005°56'510.8
2018-Sep-17 05:03N 53°27' W 005°49'110.6
2018-Sep-17 04:59N 53°27' W 005°48'510.6
2018-Sep-17 04:30N 53°31' W 005°42'510.8
2018-Sep-17 04:04N 53°34' W 005°36'111.0
2018-Sep-17 04:01N 53°34' W 005°35'510.7
2018-Sep-17 03:31N 53°39' W 005°32'510.8
2018-Sep-17 03:03N 53°44' W 005°28'110.6
2018-Sep-17 03:00N 53°44' W 005°28'510.9
2018-Sep-17 02:31N 53°49' W 005°25'510.8
2018-Sep-17 02:04N 53°54' W 005°22'110.9
2018-Sep-17 02:00N 53°54' W 005°21'611.0
2018-Sep-17 01:30N 53°59' W 005°18'511.0
2018-Sep-17 01:03N 54°04' W 005°15'111.1
2018-Sep-17 01:01N 54°04' W 005°15'510.8
2018-Sep-17 00:31N 54°09' W 005°11'511.4
2018-Sep-17 00:04N 54°14' W 005°08'111.7
2018-Sep-17 00:01N 54°15' W 005°08'612.5
2018-Sep-16 23:31N 54°21' W 005°10'613.8
2018-Sep-16 23:03N 54°27' W 005°13'113.7
2018-Sep-16 23:01N 54°27' W 005°13'713.6
2018-Sep-16 22:31N 54°34' W 005°17'613.3
2018-Sep-16 22:04N 54°40' W 005°20'113.1
2018-Sep-16 22:01N 54°40' W 005°20'612.9
2018-Sep-16 21:31N 54°46' W 005°24'612.7
2018-Sep-16 21:03N 54°51' W 005°30'112.3
2018-Sep-16 21:00N 54°52' W 005°30'612.3
2018-Sep-16 20:30N 54°57' W 005°36'712.0
2018-Sep-16 19:58N 55°02' W 005°42'1511.1
2018-Sep-16 18:37N 55°14' W 005°58'110.4
2018-Sep-16 18:30N 55°15' W 005°59'510.5
2018-Sep-16 18:03N 55°19' W 006°04'011.0
2018-Sep-16 18:01N 55°19' W 006°05'611.2
2018-Sep-16 17:30N 55°22' W 006°14'511.0
2018-Sep-16 17:03N 55°25' W 006°20'111.7
2018-Sep-16 17:00N 55°25' W 006°21'612.1
2018-Sep-16 16:30N 55°30' W 006°13'612.1
2018-Sep-16 16:02N 55°33' W 006°05'012.2
2018-Sep-16 16:01N 55°34' W 006°05'612.3
2018-Sep-16 15:31N 55°38' W 005°58'4 9.4
2018-Sep-16 15:03N 55°42' W 006°01'0 5.2
2018-Sep-16 15:01N 55°42' W 006°01'0 0.1
2018-Sep-16 14:28N 55°43' W 006°01'0 0.1
2018-Sep-16 13:28N 55°42' W 006°01'0 0.0
2018-Sep-16 12:58N 55°42' W 006°01'0 0.0
2018-Sep-16 12:16N 55°42' W 006°01'0 0.0
2018-Sep-16 12:01N 55°42' W 006°01'0 0.0
2018-Sep-16 11:58N 55°42' W 006°01'0 0.0
2018-Sep-16 11:16N 55°42' W 006°01'0 0.1
2018-Sep-16 11:01N 55°42' W 006°01'0 0.3
2018-Sep-16 10:58N 55°42' W 006°01'0 0.0
2018-Sep-16 10:28N 55°42' W 006°01'0 0.1
2018-Sep-16 10:01N 55°42' W 006°01'0 0.5
2018-Sep-16 09:58N 55°43' W 006°01'0 0.0
2018-Sep-16 09:28N 55°43' W 006°01'0 0.1
2018-Sep-16 09:01N 55°43' W 006°01'0 0.3
2018-Sep-16 08:49N 55°43' W 006°01'0 0.0
2018-Sep-16 08:19N 55°43' W 006°01'0 0.4
2018-Sep-16 08:03N 55°43' W 006°01'0 2.3
2018-Sep-16 08:00N 55°43' W 006°01'0 0.4
2018-Sep-16 07:30N 55°43' W 006°01'4 8.0
2018-Sep-16 07:02N 55°39' W 005°60'114.7
2018-Sep-16 07:00N 55°38' W 006°00'613.1
2018-Sep-16 06:30N 55°35' W 006°10'2 3.5
2018-Sep-16 06:03N 55°36' W 006°13'0 4.3
2018-Sep-16 06:00N 55°36' W 006°12'3 6.9
2018-Sep-16 05:30N 55°32' W 006°14'4 8.0
2018-Sep-16 05:03N 55°32' W 006°21'0 7.3
2018-Sep-16 05:00N 55°32' W 006°21'4 7.5
2018-Sep-16 04:30N 55°32' W 006°28'4 7.9
2018-Sep-16 04:03N 55°32' W 006°34'0 7.3
2018-Sep-16 04:00N 55°32' W 006°35'4 7.8
2018-Sep-16 03:30N 55°34' W 006°41'4 8.1
2018-Sep-16 03:03N 55°37' W 006°42'0 7.9
2018-Sep-16 03:00N 55°38' W 006°42'4 8.4
2018-Sep-16 02:30N 55°42' W 006°43'4 7.9
2018-Sep-16 02:03N 55°46' W 006°41'0 8.0
2018-Sep-16 02:00N 55°46' W 006°41'4 8.7
2018-Sep-16 01:30N 55°50' W 006°38'43 7.9
2018-Sep-15 20:02N 56°20' W 005°43'010.1
2018-Sep-15 20:00N 56°20' W 005°42'510.2
2018-Sep-15 19:30N 56°25' W 005°38'4 0.8
2018-Sep-15 14:46N 56°28' W 005°40'1 4.9
2018-Sep-15 14:30N 56°28' W 005°38'612.8
2018-Sep-15 14:00N 56°21' W 005°40'50 1.2
2018-Sep-13 19:55N 57°06' W 006°22'512.9
2018-Sep-13 19:30N 57°05' W 006°13'  
Track history (hours):
 
Tides and Currents Weather Stations Pressure Air Temp Water Temp Dewpoint Dewpoint Depression Visibility Wind Speed Wind Dir Waves Ship Positions

The World

Operator: Bergshav-Norway

Last reported at 2018-Sep-22 07:02 UTC. Time now 2018-Sep-22 07:15 UTC.
Position N 51°51' W 008°18'.

Length 196 m; draft 7.1 m.

Type: Ship. MMSI: 311213000.

Date/timePositionNaut miles runAvg speedWind from/ knotsBaromVisibWave heightAir tempDewpointWater temp
2018-Sep-22 07:02N 51°51' W 008°18'0 0.0
2018-Sep-22 06:56N 51°51' W 008°18'0 0.0
2018-Sep-22 06:26N 51°51' W 008°18'0 0.0
2018-Sep-22 06:02N 51°51' W 008°18'0 0.0
2018-Sep-22 05:56N 51°51' W 008°18'0 0.0
2018-Sep-22 05:26N 51°51' W 008°18'0 0.0
2018-Sep-22 05:02N 51°51' W 008°18'0 0.0
2018-Sep-22 04:56N 51°51' W 008°18'0 0.0
2018-Sep-22 04:26N 51°51' W 008°18'0 0.0
2018-Sep-22 04:02N 51°51' W 008°18'0 0.0
2018-Sep-22 03:56N 51°51' W 008°18'0 0.0
2018-Sep-22 03:26N 51°51' W 008°18'0 0.0
2018-Sep-22 03:02N 51°51' W 008°18'0 0.0
2018-Sep-22 02:56N 51°51' W 008°18'0 0.0
2018-Sep-22 02:26N 51°51' W 008°18'0 0.0
2018-Sep-22 02:02N 51°51' W 008°18'0 0.0
2018-Sep-22 01:56N 51°51' W 008°18'0 0.0
2018-Sep-22 01:26N 51°51' W 008°18'0 0.0
2018-Sep-22 01:02N 51°51' W 008°18'0 0.0
2018-Sep-22 00:56N 51°51' W 008°18'0 0.0
2018-Sep-22 00:26N 51°51' W 008°18'0 0.0
2018-Sep-22 00:02N 51°51' W 008°18'0 0.0
2018-Sep-21 23:56N 51°51' W 008°18'0 0.0
2018-Sep-21 23:26N 51°51' W 008°18'0 0.0
2018-Sep-21 23:02N 51°51' W 008°18'0 0.0
2018-Sep-21 22:56N 51°51' W 008°18'0 0.0
2018-Sep-21 22:26N 51°51' W 008°18'0 0.0
2018-Sep-21 22:02N 51°51' W 008°18'0 0.0
2018-Sep-21 21:56N 51°51' W 008°18'0 0.0
2018-Sep-21 21:26N 51°51' W 008°18'0 0.0
2018-Sep-21 21:02N 51°51' W 008°18'0 0.0
2018-Sep-21 20:56N 51°51' W 008°18'0 0.0
2018-Sep-21 20:26N 51°51' W 008°18'0 0.0
2018-Sep-21 20:02N 51°51' W 008°18'0 0.0
2018-Sep-21 19:56N 51°51' W 008°18'0 0.0
2018-Sep-21 19:26N 51°51' W 008°18'0 0.0
2018-Sep-21 19:02N 51°51' W 008°18'0 0.0
2018-Sep-21 18:56N 51°51' W 008°18'0 0.0
2018-Sep-21 18:26N 51°51' W 008°18'0 0.3
2018-Sep-21 18:03N 51°51' W 008°18'0 0.4
2018-Sep-21 18:00N 51°51' W 008°18'2 3.1
2018-Sep-21 17:31N 51°50' W 008°16'510.4
2018-Sep-21 17:03N 51°46' W 008°15'010.0
2018-Sep-21 17:01N 51°45' W 008°15'4 7.1
2018-Sep-21 16:31N 51°43' W 008°11'512.0
2018-Sep-21 16:04N 51°45' W 008°02'111.7
2018-Sep-21 16:00N 51°45' W 008°01'611.5
2018-Sep-21 15:31N 51°47' W 007°53'511.4
2018-Sep-21 15:03N 51°48' W 007°44'111.4
2018-Sep-21 15:00N 51°48' W 007°44'1111.1
2018-Sep-21 14:00N 51°51' W 007°27'611.6
2018-Sep-21 13:31N 51°53' W 007°18'4 8.9
2018-Sep-21 13:01N 51°54' W 007°11'0 8.9
2018-Sep-21 13:00N 51°54' W 007°11'15 8.6
2018-Sep-21 11:17N 51°59' W 006°48'2 8.3
2018-Sep-21 11:01N 51°59' W 006°44'4 8.3
2018-Sep-21 10:31N 52°01' W 006°38'4 8.1
2018-Sep-21 10:04N 52°02' W 006°32'0 8.3
2018-Sep-21 10:00N 52°03' W 006°32'4 7.9
2018-Sep-21 09:31N 52°04' W 006°26'3 7.6
2018-Sep-21 09:03N 52°06' W 006°21'0 7.6
2018-Sep-21 09:00N 52°06' W 006°20'4 7.4
2018-Sep-21 08:30N 52°08' W 006°15'3 7.6
2018-Sep-21 08:04N 52°10' W 006°11'0 7.6
2018-Sep-21 08:01N 52°10' W 006°10'4 8.1
2018-Sep-21 07:31N 52°14' W 006°07'4 8.6
2018-Sep-21 07:03N 52°17' W 006°05'0 8.6
2018-Sep-21 07:00N 52°18' W 006°05'4 8.7
2018-Sep-21 06:31N 52°22' W 006°03'4 8.6
2018-Sep-21 06:04N 52°26' W 006°01'0 8.7
2018-Sep-21 06:00N 52°26' W 006°00'4 8.7
2018-Sep-21 05:31N 52°30' W 005°58'4 8.7
2018-Sep-21 05:03N 52°34' W 005°56'0 8.8
2018-Sep-21 05:00N 52°34' W 005°56'4 8.6
2018-Sep-21 04:30N 52°38' W 005°53'4 8.1
2018-Sep-21 04:03N 52°42' W 005°53'0 8.3
2018-Sep-21 04:00N 52°42' W 005°53'5 8.5
2018-Sep-21 03:28N 52°47' W 005°53'4 8.8
2018-Sep-21 03:04N 52°50' W 005°52'1 8.8
2018-Sep-21 03:00N 52°51' W 005°52'5 9.0
2018-Sep-21 02:30N 52°55' W 005°52'4 8.2
2018-Sep-21 02:03N 52°59' W 005°54'0 8.3
2018-Sep-21 02:01N 52°59' W 005°54'4 8.6
2018-Sep-21 01:30N 53°04' W 005°55'4 9.1
2018-Sep-21 01:04N 53°08' W 005°56'1 9.0
2018-Sep-21 01:00N 53°08' W 005°56'4 8.8
2018-Sep-21 00:30N 53°12' W 005°59'4 8.8
2018-Sep-21 00:04N 53°16' W 006°01'0 9.3
2018-Sep-21 00:01N 53°16' W 006°01'7 9.1
2018-Sep-20 23:16N 53°21' W 006°10'2 0.3
2018-Sep-20 16:33N 53°21' W 006°13'0 0.0
2018-Sep-20 09:51N 53°21' W 006°13'0 0.0
2018-Sep-20 09:30N 53°21' W 006°13'  
2018-Sep-17 06:43N 53°21' W 006°13'1 3.9
2018-Sep-17 06:30N 53°21' W 006°11'6 8.8
2018-Sep-17 05:50N 53°21' W 006°01'413.0
2018-Sep-17 05:31N 53°24' W 005°56'510.8
2018-Sep-17 05:03N 53°27' W 005°49'110.6
2018-Sep-17 04:59N 53°27' W 005°48'510.6
2018-Sep-17 04:30N 53°31' W 005°42'510.8
2018-Sep-17 04:04N 53°34' W 005°36'111.0
2018-Sep-17 04:01N 53°34' W 005°35'510.7
2018-Sep-17 03:31N 53°39' W 005°32'510.8
2018-Sep-17 03:03N 53°44' W 005°28'110.6
2018-Sep-17 03:00N 53°44' W 005°28'510.9
2018-Sep-17 02:31N 53°49' W 005°25'510.8
2018-Sep-17 02:04N 53°54' W 005°22'110.9
2018-Sep-17 02:00N 53°54' W 005°21'611.0
2018-Sep-17 01:30N 53°59' W 005°18'511.0
2018-Sep-17 01:03N 54°04' W 005°15'111.1
2018-Sep-17 01:01N 54°04' W 005°15'510.8
2018-Sep-17 00:31N 54°09' W 005°11'511.4
2018-Sep-17 00:04N 54°14' W 005°08'111.7
2018-Sep-17 00:01N 54°15' W 005°08'612.5
2018-Sep-16 23:31N 54°21' W 005°10'613.8
2018-Sep-16 23:03N 54°27' W 005°13'113.7
2018-Sep-16 23:01N 54°27' W 005°13'713.6
2018-Sep-16 22:31N 54°34' W 005°17'613.3
2018-Sep-16 22:04N 54°40' W 005°20'113.1
2018-Sep-16 22:01N 54°40' W 005°20'612.9
2018-Sep-16 21:31N 54°46' W 005°24'612.7
2018-Sep-16 21:03N 54°51' W 005°30'112.3
2018-Sep-16 21:00N 54°52' W 005°30'612.3
2018-Sep-16 20:30N 54°57' W 005°36'712.0
2018-Sep-16 19:58N 55°02' W 005°42'1511.1
2018-Sep-16 18:37N 55°14' W 005°58'110.4
2018-Sep-16 18:30N 55°15' W 005°59'510.5
2018-Sep-16 18:03N 55°19' W 006°04'011.0
2018-Sep-16 18:01N 55°19' W 006°05'611.2
2018-Sep-16 17:30N 55°22' W 006°14'511.0
2018-Sep-16 17:03N 55°25' W 006°20'111.7
2018-Sep-16 17:00N 55°25' W 006°21'612.1
2018-Sep-16 16:30N 55°30' W 006°13'612.1
2018-Sep-16 16:02N 55°33' W 006°05'012.2
2018-Sep-16 16:01N 55°34' W 006°05'612.3
2018-Sep-16 15:31N 55°38' W 005°58'4 9.4
2018-Sep-16 15:03N 55°42' W 006°01'0 5.2
2018-Sep-16 15:01N 55°42' W 006°01'0 0.1
2018-Sep-16 14:28N 55°43' W 006°01'0 0.1
2018-Sep-16 13:28N 55°42' W 006°01'0 0.0
2018-Sep-16 12:58N 55°42' W 006°01'0 0.0
2018-Sep-16 12:16N 55°42' W 006°01'0 0.0
2018-Sep-16 12:01N 55°42' W 006°01'0 0.0
2018-Sep-16 11:58N 55°42' W 006°01'0 0.0
2018-Sep-16 11:16N 55°42' W 006°01'0 0.1
2018-Sep-16 11:01N 55°42' W 006°01'0 0.3
2018-Sep-16 10:58N 55°42' W 006°01'0 0.0
2018-Sep-16 10:28N 55°42' W 006°01'0 0.1
2018-Sep-16 10:01N 55°42' W 006°01'0 0.5
2018-Sep-16 09:58N 55°43' W 006°01'0 0.0
2018-Sep-16 09:28N 55°43' W 006°01'0 0.1
2018-Sep-16 09:01N 55°43' W 006°01'0 0.3
2018-Sep-16 08:49N 55°43' W 006°01'0 0.0
2018-Sep-16 08:19N 55°43' W 006°01'0 0.4
2018-Sep-16 08:03N 55°43' W 006°01'0 2.3
2018-Sep-16 08:00N 55°43' W 006°01'0 0.4
2018-Sep-16 07:30N 55°43' W 006°01'4 8.0
2018-Sep-16 07:02N 55°39' W 005°60'114.7
2018-Sep-16 07:00N 55°38' W 006°00'613.1
2018-Sep-16 06:30N 55°35' W 006°10'2 3.5
2018-Sep-16 06:03N 55°36' W 006°13'0 4.3
2018-Sep-16 06:00N 55°36' W 006°12'3 6.9
2018-Sep-16 05:30N 55°32' W 006°14'4 8.0
2018-Sep-16 05:03N 55°32' W 006°21'0 7.3
2018-Sep-16 05:00N 55°32' W 006°21'4 7.5
2018-Sep-16 04:30N 55°32' W 006°28'4 7.9
2018-Sep-16 04:03N 55°32' W 006°34'0 7.3
2018-Sep-16 04:00N 55°32' W 006°35'4 7.8
2018-Sep-16 03:30N 55°34' W 006°41'4 8.1
2018-Sep-16 03:03N 55°37' W 006°42'0 7.9
2018-Sep-16 03:00N 55°38' W 006°42'4 8.4
2018-Sep-16 02:30N 55°42' W 006°43'4 7.9
2018-Sep-16 02:03N 55°46' W 006°41'0 8.0
2018-Sep-16 02:00N 55°46' W 006°41'4 8.7
2018-Sep-16 01:30N 55°50' W 006°38'43 7.9
2018-Sep-15 20:02N 56°20' W 005°43'010.1
2018-Sep-15 20:00N 56°20' W 005°42'510.2
2018-Sep-15 19:30N 56°25' W 005°38'4 0.8
2018-Sep-15 14:46N 56°28' W 005°40'1 4.9
2018-Sep-15 14:30N 56°28' W 005°38'612.8
2018-Sep-15 14:00N 56°21' W 005°40'50 1.2
2018-Sep-13 19:55N 57°06' W 006°22'512.9
2018-Sep-13 19:30N 57°05' W 006°13'  

Dump ship's entire track history